sensor_id;sensor_type;location;lat;lon;timestamp;temperature;humidity
19039;DHT22;9652;49.014;12.052;2023-04-25T00:02:00;13.30;59.10
19039;DHT22;9652;49.014;12.052;2023-04-25T00:04:29;13.40;59.10
19039;DHT22;9652;49.014;12.052;2023-04-25T00:06:59;13.30;59.10
19039;DHT22;9652;49.014;12.052;2023-04-25T00:09:29;13.30;59.00
19039;DHT22;9652;49.014;12.052;2023-04-25T00:11:56;13.20;59.10
19039;DHT22;9652;49.014;12.052;2023-04-25T00:14:23;13.20;59.10
19039;DHT22;9652;49.014;12.052;2023-04-25T00:16:51;13.20;59.10
19039;DHT22;9652;49.014;12.052;2023-04-25T00:19:19;13.20;59.10
19039;DHT22;9652;49.014;12.052;2023-04-25T00:21:46;13.20;59.00
19039;DHT22;9652;49.014;12.052;2023-04-25T00:24:13;13.20;59.00
19039;DHT22;9652;49.014;12.052;2023-04-25T00:26:42;13.10;59.00
19039;DHT22;9652;49.014;12.052;2023-04-25T00:29:09;13.10;59.00
19039;DHT22;9652;49.014;12.052;2023-04-25T00:31:37;13.20;59.10
19039;DHT22;9652;49.014;12.052;2023-04-25T00:34:05;13.10;59.00
19039;DHT22;9652;49.014;12.052;2023-04-25T00:36:32;13.10;59.00
19039;DHT22;9652;49.014;12.052;2023-04-25T00:38:59;13.10;59.00
19039;DHT22;9652;49.014;12.052;2023-04-25T00:41:26;13.10;59.00
19039;DHT22;9652;49.014;12.052;2023-04-25T00:43:57;13.10;59.00
19039;DHT22;9652;49.014;12.052;2023-04-25T00:46:26;13.00;59.00
19039;DHT22;9652;49.014;12.052;2023-04-25T00:48:53;13.00;59.00
19039;DHT22;9652;49.014;12.052;2023-04-25T00:51:21;13.00;59.10
19039;DHT22;9652;49.014;12.052;2023-04-25T00:53:49;13.00;59.20
19039;DHT22;9652;49.014;12.052;2023-04-25T00:56:16;12.90;59.10
19039;DHT22;9652;49.014;12.052;2023-04-25T00:58:44;12.90;59.20
19039;DHT22;9652;49.014;12.052;2023-04-25T01:01:13;12.90;59.20
19039;DHT22;9652;49.014;12.052;2023-04-25T01:03:40;12.90;59.80
19039;DHT22;9652;49.014;12.052;2023-04-25T01:06:08;12.90;59.20
19039;DHT22;9652;49.014;12.052;2023-04-25T01:08:37;12.90;59.30
19039;DHT22;9652;49.014;12.052;2023-04-25T01:11:05;12.80;59.20
19039;DHT22;9652;49.014;12.052;2023-04-25T01:13:33;12.80;59.20
19039;DHT22;9652;49.014;12.052;2023-04-25T01:16:02;12.80;59.30
19039;DHT22;9652;49.014;12.052;2023-04-25T01:18:31;12.80;59.40
19039;DHT22;9652;49.014;12.052;2023-04-25T01:21:07;12.70;59.30
19039;DHT22;9652;49.014;12.052;2023-04-25T01:23:35;12.70;59.50
19039;DHT22;9652;49.014;12.052;2023-04-25T01:26:04;12.70;59.40
19039;DHT22;9652;49.014;12.052;2023-04-25T01:28:33;12.70;60.00
19039;DHT22;9652;49.014;12.052;2023-04-25T01:31:01;12.70;59.50
19039;DHT22;9652;49.014;12.052;2023-04-25T01:33:29;12.70;59.60
19039;DHT22;9652;49.014;12.052;2023-04-25T01:35:56;12.70;59.60
19039;DHT22;9652;49.014;12.052;2023-04-25T01:38:25;12.70;59.70
19039;DHT22;9652;49.014;12.052;2023-04-25T01:40:53;12.70;59.80
19039;DHT22;9652;49.014;12.052;2023-04-25T01:43:22;12.70;59.90
19039;DHT22;9652;49.014;12.052;2023-04-25T01:45:50;12.70;60.00
19039;DHT22;9652;49.014;12.052;2023-04-25T01:48:17;12.70;60.00
19039;DHT22;9652;49.014;12.052;2023-04-25T01:50:47;12.70;60.00
19039;DHT22;9652;49.014;12.052;2023-04-25T01:53:14;12.70;60.10
19039;DHT22;9652;49.014;12.052;2023-04-25T01:55:45;12.70;60.10
19039;DHT22;9652;49.014;12.052;2023-04-25T01:58:15;12.70;60.20
19039;DHT22;9652;49.014;12.052;2023-04-25T02:01:01;12.70;60.20
19039;DHT22;9652;49.014;12.052;2023-04-25T02:03:35;12.70;60.10
19039;DHT22;9652;49.014;12.052;2023-04-25T02:06:06;12.80;60.00
19039;DHT22;9652;49.014;12.052;2023-04-25T02:08:37;12.80;59.90
19039;DHT22;9652;49.014;12.052;2023-04-25T02:11:06;12.80;59.90
19039;DHT22;9652;49.014;12.052;2023-04-25T02:13:40;12.80;59.90
19039;DHT22;9652;49.014;12.052;2023-04-25T02:16:26;12.80;59.90
19039;DHT22;9652;49.014;12.052;2023-04-25T02:18:53;12.80;59.80
19039;DHT22;9652;49.014;12.052;2023-04-25T02:21:20;12.70;59.80
19039;DHT22;9652;49.014;12.052;2023-04-25T02:23:47;12.80;59.80
19039;DHT22;9652;49.014;12.052;2023-04-25T02:26:16;12.80;59.80
19039;DHT22;9652;49.014;12.052;2023-04-25T02:28:43;12.80;59.80
19039;DHT22;9652;49.014;12.052;2023-04-25T02:31:10;12.80;59.80
19039;DHT22;9652;49.014;12.052;2023-04-25T02:33:37;12.80;59.80
19039;DHT22;9652;49.014;12.052;2023-04-25T02:36:06;12.90;59.80
19039;DHT22;9652;49.014;12.052;2023-04-25T02:38:33;12.80;59.70
19039;DHT22;9652;49.014;12.052;2023-04-25T02:41:00;12.80;59.80
19039;DHT22;9652;49.014;12.052;2023-04-25T02:43:29;12.80;59.70
19039;DHT22;9652;49.014;12.052;2023-04-25T02:45:56;12.80;59.70
19039;DHT22;9652;49.014;12.052;2023-04-25T02:48:23;12.80;59.70
19039;DHT22;9652;49.014;12.052;2023-04-25T02:50:50;12.80;59.60
19039;DHT22;9652;49.014;12.052;2023-04-25T02:53:17;12.80;59.70
19039;DHT22;9652;49.014;12.052;2023-04-25T02:55:48;12.80;59.70
19039;DHT22;9652;49.014;12.052;2023-04-25T02:58:15;12.70;59.70
19039;DHT22;9652;49.014;12.052;2023-04-25T03:00:49;12.70;59.70
19039;DHT22;9652;49.014;12.052;2023-04-25T03:03:16;12.70;59.70
19039;DHT22;9652;49.014;12.052;2023-04-25T03:05:47;12.70;59.70
19039;DHT22;9652;49.014;12.052;2023-04-25T03:08:17;12.70;59.70
19039;DHT22;9652;49.014;12.052;2023-04-25T03:10:44;12.70;59.70
19039;DHT22;9652;49.014;12.052;2023-04-25T03:13:14;12.70;59.80
19039;DHT22;9652;49.014;12.052;2023-04-25T03:15:43;12.70;59.80
19039;DHT22;9652;49.014;12.052;2023-04-25T03:18:11;12.70;59.80
19039;DHT22;9652;49.014;12.052;2023-04-25T03:20:40;12.70;59.80
19039;DHT22;9652;49.014;12.052;2023-04-25T03:23:08;12.60;59.80
19039;DHT22;9652;49.014;12.052;2023-04-25T03:25:36;12.70;59.80
19039;DHT22;9652;49.014;12.052;2023-04-25T03:28:04;12.70;59.80
19039;DHT22;9652;49.014;12.052;2023-04-25T03:30:31;12.70;59.80
19039;DHT22;9652;49.014;12.052;2023-04-25T03:32:59;12.70;59.80
19039;DHT22;9652;49.014;12.052;2023-04-25T03:35:27;12.70;59.80
19039;DHT22;9652;49.014;12.052;2023-04-25T03:37:54;12.70;59.90
19039;DHT22;9652;49.014;12.052;2023-04-25T03:40:27;12.60;59.90
19039;DHT22;9652;49.014;12.052;2023-04-25T03:43:13;12.70;59.90
19039;DHT22;9652;49.014;12.052;2023-04-25T03:45:46;12.70;59.80
19039;DHT22;9652;49.014;12.052;2023-04-25T03:48:14;12.70;59.80
19039;DHT22;9652;49.014;12.052;2023-04-25T03:50:43;12.60;59.80
19039;DHT22;9652;49.014;12.052;2023-04-25T03:53:10;12.60;59.80
19039;DHT22;9652;49.014;12.052;2023-04-25T03:56:00;12.70;59.80
19039;DHT22;9652;49.014;12.052;2023-04-25T03:58:31;12.70;59.80
19039;DHT22;9652;49.014;12.052;2023-04-25T04:00:58;12.60;59.80
19039;DHT22;9652;49.014;12.052;2023-04-25T04:03:25;12.60;59.90
19039;DHT22;9652;49.014;12.052;2023-04-25T04:05:55;12.60;59.80
19039;DHT22;9652;49.014;12.052;2023-04-25T04:08:22;12.60;59.90
19039;DHT22;9652;49.014;12.052;2023-04-25T04:10:50;12.60;59.90
19039;DHT22;9652;49.014;12.052;2023-04-25T04:13:17;12.60;59.90
19039;DHT22;9652;49.014;12.052;2023-04-25T04:15:45;12.60;59.90
19039;DHT22;9652;49.014;12.052;2023-04-25T04:18:12;12.60;59.90
19039;DHT22;9652;49.014;12.052;2023-04-25T04:20:39;12.60;60.00
19039;DHT22;9652;49.014;12.052;2023-04-25T04:23:08;12.60;60.00
19039;DHT22;9652;49.014;12.052;2023-04-25T04:25:36;12.60;60.00
19039;DHT22;9652;49.014;12.052;2023-04-25T04:28:08;12.60;60.00
19039;DHT22;9652;49.014;12.052;2023-04-25T04:31:02;12.60;60.00
19039;DHT22;9652;49.014;12.052;2023-04-25T04:33:29;12.70;60.10
19039;DHT22;9652;49.014;12.052;2023-04-25T04:36:00;12.70;60.10
19039;DHT22;9652;49.014;12.052;2023-04-25T04:38:30;12.70;60.20
19039;DHT22;9652;49.014;12.052;2023-04-25T04:41:00;12.70;60.30
19039;DHT22;9652;49.014;12.052;2023-04-25T04:43:40;12.70;60.20
19039;DHT22;9652;49.014;12.052;2023-04-25T04:46:16;12.80;60.20
19039;DHT22;9652;49.014;12.052;2023-04-25T04:49:11;12.80;60.10
19039;DHT22;9652;49.014;12.052;2023-04-25T04:51:52;12.80;60.00
19039;DHT22;9652;49.014;12.052;2023-04-25T04:54:50;12.80;59.90
19039;DHT22;9652;49.014;12.052;2023-04-25T04:57:31;12.80;59.80
19039;DHT22;9652;49.014;12.052;2023-04-25T05:00:21;12.80;59.60
19039;DHT22;9652;49.014;12.052;2023-04-25T05:03:07;12.80;59.50
19039;DHT22;9652;49.014;12.052;2023-04-25T05:05:41;12.70;59.40
19039;DHT22;9652;49.014;12.052;2023-04-25T05:08:27;12.70;59.40
19039;DHT22;9652;49.014;12.052;2023-04-25T05:11:24;12.60;59.40
19039;DHT22;9652;49.014;12.052;2023-04-25T05:13:58;12.50;59.50
19039;DHT22;9652;49.014;12.052;2023-04-25T05:16:48;12.50;59.50
19039;DHT22;9652;49.014;12.052;2023-04-25T05:19:22;12.40;59.60
19039;DHT22;9652;49.014;12.052;2023-04-25T05:22:10;12.40;59.70
19039;DHT22;9652;49.014;12.052;2023-04-25T05:24:50;12.30;59.70
19039;DHT22;9652;49.014;12.052;2023-04-25T05:27:38;12.30;59.80
19039;DHT22;9652;49.014;12.052;2023-04-25T05:30:30;12.30;60.00
19039;DHT22;9652;49.014;12.052;2023-04-25T05:33:04;12.30;60.20
19039;DHT22;9652;49.014;12.052;2023-04-25T05:35:32;12.30;60.50
19039;DHT22;9652;49.014;12.052;2023-04-25T05:38:00;12.20;60.50
19039;DHT22;9652;49.014;12.052;2023-04-25T05:40:45;12.30;60.80
19039;DHT22;9652;49.014;12.052;2023-04-25T05:43:34;12.40;60.90
19039;DHT22;9652;49.014;12.052;2023-04-25T05:46:20;12.50;61.10
19039;DHT22;9652;49.014;12.052;2023-04-25T05:49:09;12.50;61.20
19039;DHT22;9652;49.014;12.052;2023-04-25T05:51:56;12.60;61.20
19039;DHT22;9652;49.014;12.052;2023-04-25T05:54:49;12.80;61.40
19039;DHT22;9652;49.014;12.052;2023-04-25T05:57:22;12.90;61.50
19039;DHT22;9652;49.014;12.052;2023-04-25T05:59:51;13.00;61.30
19039;DHT22;9652;49.014;12.052;2023-04-25T06:02:19;13.10;61.10
19039;DHT22;9652;49.014;12.052;2023-04-25T06:04:49;13.30;61.00
19039;DHT22;9652;49.014;12.052;2023-04-25T06:07:17;13.50;60.80
19039;DHT22;9652;49.014;12.052;2023-04-25T06:09:44;13.60;61.00
19039;DHT22;9652;49.014;12.052;2023-04-25T06:12:11;13.70;60.80
19039;DHT22;9652;49.014;12.052;2023-04-25T06:14:38;13.80;60.70
19039;DHT22;9652;49.014;12.052;2023-04-25T06:17:07;13.90;60.50
19039;DHT22;9652;49.014;12.052;2023-04-25T06:19:35;14.10;60.40
19039;DHT22;9652;49.014;12.052;2023-04-25T06:22:02;14.20;60.00
19039;DHT22;9652;49.014;12.052;2023-04-25T06:24:31;14.30;59.90
19039;DHT22;9652;49.014;12.052;2023-04-25T06:26:58;14.40;59.60
19039;DHT22;9652;49.014;12.052;2023-04-25T06:29:25;14.50;59.40
19039;DHT22;9652;49.014;12.052;2023-04-25T06:31:53;14.50;59.10
19039;DHT22;9652;49.014;12.052;2023-04-25T06:34:22;14.50;58.80
19039;DHT22;9652;49.014;12.052;2023-04-25T06:36:49;14.60;58.80
19039;DHT22;9652;49.014;12.052;2023-04-25T06:39:16;14.70;58.70
19039;DHT22;9652;49.014;12.052;2023-04-25T06:41:45;14.60;58.60
19039;DHT22;9652;49.014;12.052;2023-04-25T06:44:35;14.70;58.70
19039;DHT22;9652;49.014;12.052;2023-04-25T06:47:03;14.70;58.60
19039;DHT22;9652;49.014;12.052;2023-04-25T06:49:32;14.70;58.60
19039;DHT22;9652;49.014;12.052;2023-04-25T06:51:59;14.80;58.70
19039;DHT22;9652;49.014;12.052;2023-04-25T06:54:26;14.80;58.70
19039;DHT22;9652;49.014;12.052;2023-04-25T06:57:02;14.90;58.80
19039;DHT22;9652;49.014;12.052;2023-04-25T06:59:31;15.00;58.70
19039;DHT22;9652;49.014;12.052;2023-04-25T07:01:59;15.10;58.30
19039;DHT22;9652;49.014;12.052;2023-04-25T07:04:26;15.30;58.10
19039;DHT22;9652;49.014;12.052;2023-04-25T07:06:57;15.30;57.90
19039;DHT22;9652;49.014;12.052;2023-04-25T07:09:39;15.40;57.70
19039;DHT22;9652;49.014;12.052;2023-04-25T07:12:06;15.40;57.60
19039;DHT22;9652;49.014;12.052;2023-04-25T07:14:34;15.50;57.30
19039;DHT22;9652;49.014;12.052;2023-04-25T07:17:01;15.50;57.00
19039;DHT22;9652;49.014;12.052;2023-04-25T07:19:30;15.60;57.00
19039;DHT22;9652;49.014;12.052;2023-04-25T07:22:01;15.50;56.80
19039;DHT22;9652;49.014;12.052;2023-04-25T07:24:30;15.60;57.00
19039;DHT22;9652;49.014;12.052;2023-04-25T07:26:58;15.60;57.20
19039;DHT22;9652;49.014;12.052;2023-04-25T07:29:39;15.70;57.20
19039;DHT22;9652;49.014;12.052;2023-04-25T07:32:07;15.70;57.10
19039;DHT22;9652;49.014;12.052;2023-04-25T07:34:35;15.80;57.00
19039;DHT22;9652;49.014;12.052;2023-04-25T07:37:05;15.90;57.10
19039;DHT22;9652;49.014;12.052;2023-04-25T07:39:42;16.10;56.80
19039;DHT22;9652;49.014;12.052;2023-04-25T07:42:10;16.10;56.30
19039;DHT22;9652;49.014;12.052;2023-04-25T07:44:42;16.20;56.80
19039;DHT22;9652;49.014;12.052;2023-04-25T07:47:12;16.20;55.90
19039;DHT22;9652;49.014;12.052;2023-04-25T07:49:40;16.30;55.80
19039;DHT22;9652;49.014;12.052;2023-04-25T07:52:09;16.30;55.60
19039;DHT22;9652;49.014;12.052;2023-04-25T07:54:39;16.30;55.30
19039;DHT22;9652;49.014;12.052;2023-04-25T07:57:14;16.30;55.60
19039;DHT22;9652;49.014;12.052;2023-04-25T07:59:43;16.30;55.80
19039;DHT22;9652;49.014;12.052;2023-04-25T08:02:11;16.30;55.50
19039;DHT22;9652;49.014;12.052;2023-04-25T08:04:38;16.30;55.00
19039;DHT22;9652;49.014;12.052;2023-04-25T08:07:09;16.40;54.90
19039;DHT22;9652;49.014;12.052;2023-04-25T08:09:48;16.30;54.80
19039;DHT22;9652;49.014;12.052;2023-04-25T08:12:24;16.40;54.90
19039;DHT22;9652;49.014;12.052;2023-04-25T08:14:51;16.40;55.80
19039;DHT22;9652;49.014;12.052;2023-04-25T08:17:19;16.40;55.40
19039;DHT22;9652;49.014;12.052;2023-04-25T08:19:46;16.50;55.00
19039;DHT22;9652;49.014;12.052;2023-04-25T08:22:24;16.60;54.60
19039;DHT22;9652;49.014;12.052;2023-04-25T08:24:59;16.70;54.30
19039;DHT22;9652;49.014;12.052;2023-04-25T08:27:26;16.70;54.00
19039;DHT22;9652;49.014;12.052;2023-04-25T08:29:53;16.70;53.90
19039;DHT22;9652;49.014;12.052;2023-04-25T08:32:21;16.80;54.10
19039;DHT22;9652;49.014;12.052;2023-04-25T08:35:17;16.80;54.20
19039;DHT22;9652;49.014;12.052;2023-04-25T08:37:46;16.90;53.90
19039;DHT22;9652;49.014;12.052;2023-04-25T08:40:15;16.90;53.80
19039;DHT22;9652;49.014;12.052;2023-04-25T08:42:50;17.00;53.70
19039;DHT22;9652;49.014;12.052;2023-04-25T08:45:20;17.00;53.50
19039;DHT22;9652;49.014;12.052;2023-04-25T08:47:51;17.10;53.30
19039;DHT22;9652;49.014;12.052;2023-04-25T08:50:22;17.10;53.10
19039;DHT22;9652;49.014;12.052;2023-04-25T08:52:53;17.20;52.80
19039;DHT22;9652;49.014;12.052;2023-04-25T08:55:25;17.20;52.50
19039;DHT22;9652;49.014;12.052;2023-04-25T08:57:57;17.20;52.80
19039;DHT22;9652;49.014;12.052;2023-04-25T09:00:27;17.30;52.70
19039;DHT22;9652;49.014;12.052;2023-04-25T09:02:56;17.40;52.70
19039;DHT22;9652;49.014;12.052;2023-04-25T09:05:29;17.40;52.20
19039;DHT22;9652;49.014;12.052;2023-04-25T09:07:57;17.40;52.20
19039;DHT22;9652;49.014;12.052;2023-04-25T09:10:26;17.40;51.80
19039;DHT22;9652;49.014;12.052;2023-04-25T09:13:04;17.50;51.90
19039;DHT22;9652;49.014;12.052;2023-04-25T09:15:49;17.30;50.90
19039;DHT22;9652;49.014;12.052;2023-04-25T09:18:33;17.30;51.50
19039;DHT22;9652;49.014;12.052;2023-04-25T09:21:06;17.10;52.00
19039;DHT22;9652;49.014;12.052;2023-04-25T09:23:41;17.10;52.30
19039;DHT22;9652;49.014;12.052;2023-04-25T09:26:10;17.00;52.70
19039;DHT22;9652;49.014;12.052;2023-04-25T09:28:41;17.00;52.70
19039;DHT22;9652;49.014;12.052;2023-04-25T09:31:10;17.10;53.00
19039;DHT22;9652;49.014;12.052;2023-04-25T09:33:44;17.10;53.10
19039;DHT22;9652;49.014;12.052;2023-04-25T09:36:11;17.00;53.00
19039;DHT22;9652;49.014;12.052;2023-04-25T09:38:52;17.10;52.90
19039;DHT22;9652;49.014;12.052;2023-04-25T09:41:38;17.10;53.30
19039;DHT22;9652;49.014;12.052;2023-04-25T09:44:06;17.20;53.40
19039;DHT22;9652;49.014;12.052;2023-04-25T09:46:37;17.20;53.30
19039;DHT22;9652;49.014;12.052;2023-04-25T09:49:14;17.20;52.70
19039;DHT22;9652;49.014;12.052;2023-04-25T09:51:59;17.20;52.60
19039;DHT22;9652;49.014;12.052;2023-04-25T09:54:33;17.20;52.70
19039;DHT22;9652;49.014;12.052;2023-04-25T09:57:11;17.10;52.80
19039;DHT22;9652;49.014;12.052;2023-04-25T09:59:43;17.20;52.80
19039;DHT22;9652;49.014;12.052;2023-04-25T10:02:14;17.20;53.00
19039;DHT22;9652;49.014;12.052;2023-04-25T10:04:47;17.20;53.00
19039;DHT22;9652;49.014;12.052;2023-04-25T10:07:38;17.20;53.30
19039;DHT22;9652;49.014;12.052;2023-04-25T10:10:12;17.40;53.00
19039;DHT22;9652;49.014;12.052;2023-04-25T10:12:40;17.40;52.20
19039;DHT22;9652;49.014;12.052;2023-04-25T10:15:09;17.40;52.20
19039;DHT22;9652;49.014;12.052;2023-04-25T10:17:38;17.40;52.40
19039;DHT22;9652;49.014;12.052;2023-04-25T10:20:07;17.50;52.50
19039;DHT22;9652;49.014;12.052;2023-04-25T10:22:38;17.50;52.60
19039;DHT22;9652;49.014;12.052;2023-04-25T10:25:08;17.60;52.80
19039;DHT22;9652;49.014;12.052;2023-04-25T10:27:38;17.70;52.70
19039;DHT22;9652;49.014;12.052;2023-04-25T10:30:08;17.70;51.80
19039;DHT22;9652;49.014;12.052;2023-04-25T10:32:38;17.70;51.60
19039;DHT22;9652;49.014;12.052;2023-04-25T10:35:13;17.70;51.70
19039;DHT22;9652;49.014;12.052;2023-04-25T10:38:02;17.60;51.50
19039;DHT22;9652;49.014;12.052;2023-04-25T10:40:31;17.50;51.50
19039;DHT22;9652;49.014;12.052;2023-04-25T10:46:13;17.20;51.90
19039;DHT22;9652;49.014;12.052;2023-04-25T10:48:47;17.10;52.10
19039;DHT22;9652;49.014;12.052;2023-04-25T10:51:20;16.90;52.60
19039;DHT22;9652;49.014;12.052;2023-04-25T10:53:58;16.90;52.90
19039;DHT22;9652;49.014;12.052;2023-04-25T10:56:28;16.90;53.10
19039;DHT22;9652;49.014;12.052;2023-04-25T10:59:05;17.10;53.50
19039;DHT22;9652;49.014;12.052;2023-04-25T11:01:38;17.20;53.10
19039;DHT22;9652;49.014;12.052;2023-04-25T11:04:06;17.40;53.00
19039;DHT22;9652;49.014;12.052;2023-04-25T11:06:55;17.60;53.20
19039;DHT22;9652;49.014;12.052;2023-04-25T11:09:29;17.70;52.40
19039;DHT22;9652;49.014;12.052;2023-04-25T11:11:56;17.90;52.30
19039;DHT22;9652;49.014;12.052;2023-04-25T11:14:26;18.00;51.90
19039;DHT22;9652;49.014;12.052;2023-04-25T11:16:54;18.10;51.50
19039;DHT22;9652;49.014;12.052;2023-04-25T11:19:21;18.30;51.00
19039;DHT22;9652;49.014;12.052;2023-04-25T11:21:49;18.30;51.10
19039;DHT22;9652;49.014;12.052;2023-04-25T11:24:16;18.30;50.70
19039;DHT22;9652;49.014;12.052;2023-04-25T11:26:44;18.40;50.60
19039;DHT22;9652;49.014;12.052;2023-04-25T11:29:14;18.50;49.90
19039;DHT22;9652;49.014;12.052;2023-04-25T11:31:44;18.50;49.20
19039;DHT22;9652;49.014;12.052;2023-04-25T11:34:11;18.40;48.30
19039;DHT22;9652;49.014;12.052;2023-04-25T11:36:44;18.30;48.60
19039;DHT22;9652;49.014;12.052;2023-04-25T11:39:12;18.20;48.70
19039;DHT22;9652;49.014;12.052;2023-04-25T11:41:41;18.10;48.40
19039;DHT22;9652;49.014;12.052;2023-04-25T11:44:08;18.00;48.60
19039;DHT22;9652;49.014;12.052;2023-04-25T11:46:35;18.00;49.00
19039;DHT22;9652;49.014;12.052;2023-04-25T11:49:04;18.10;48.60
19039;DHT22;9652;49.014;12.052;2023-04-25T11:51:38;18.00;48.50
19039;DHT22;9652;49.014;12.052;2023-04-25T11:54:06;17.90;48.90
19039;DHT22;9652;49.014;12.052;2023-04-25T11:56:33;18.00;49.20
19039;DHT22;9652;49.014;12.052;2023-04-25T11:59:01;18.00;48.80
19039;DHT22;9652;49.014;12.052;2023-04-25T12:01:31;18.10;48.50
19039;DHT22;9652;49.014;12.052;2023-04-25T12:04:12;18.10;48.00
19039;DHT22;9652;49.014;12.052;2023-04-25T12:06:41;18.10;47.10
19039;DHT22;9652;49.014;12.052;2023-04-25T12:09:10;18.10;47.40
19039;DHT22;9652;49.014;12.052;2023-04-25T12:11:42;18.10;47.10
19039;DHT22;9652;49.014;12.052;2023-04-25T12:14:10;18.10;47.10
19039;DHT22;9652;49.014;12.052;2023-04-25T12:16:41;18.10;47.70
19039;DHT22;9652;49.014;12.052;2023-04-25T12:19:13;18.20;47.70
19039;DHT22;9652;49.014;12.052;2023-04-25T12:21:40;18.30;48.50
19039;DHT22;9652;49.014;12.052;2023-04-25T12:24:12;18.50;48.10
19039;DHT22;9652;49.014;12.052;2023-04-25T12:26:51;18.70;47.60
19039;DHT22;9652;49.014;12.052;2023-04-25T12:29:20;18.80;46.90
19039;DHT22;9652;49.014;12.052;2023-04-25T12:31:48;18.90;47.10
19039;DHT22;9652;49.014;12.052;2023-04-25T12:34:18;19.00;46.90
19039;DHT22;9652;49.014;12.052;2023-04-25T12:36:45;19.00;46.30
19039;DHT22;9652;49.014;12.052;2023-04-25T12:39:15;19.00;45.90
19039;DHT22;9652;49.014;12.052;2023-04-25T12:41:42;19.00;45.60
19039;DHT22;9652;49.014;12.052;2023-04-25T12:44:10;18.90;46.10
19039;DHT22;9652;49.014;12.052;2023-04-25T12:46:38;18.90;46.60
19039;DHT22;9652;49.014;12.052;2023-04-25T12:49:06;19.00;47.00
19039;DHT22;9652;49.014;12.052;2023-04-25T12:51:36;19.10;47.00
19039;DHT22;9652;49.014;12.052;2023-04-25T12:54:04;19.30;46.10
19039;DHT22;9652;49.014;12.052;2023-04-25T12:56:32;19.50;46.30
19039;DHT22;9652;49.014;12.052;2023-04-25T12:58:59;19.60;45.70
19039;DHT22;9652;49.014;12.052;2023-04-25T13:01:26;19.70;45.60
19039;DHT22;9652;49.014;12.052;2023-04-25T13:03:53;19.80;45.60
19039;DHT22;9652;49.014;12.052;2023-04-25T13:06:22;19.90;45.70
19039;DHT22;9652;49.014;12.052;2023-04-25T13:08:50;20.00;45.60
19039;DHT22;9652;49.014;12.052;2023-04-25T13:11:17;20.10;45.20
19039;DHT22;9652;49.014;12.052;2023-04-25T13:13:44;20.10;45.10
19039;DHT22;9652;49.014;12.052;2023-04-25T13:16:11;20.10;44.90
19039;DHT22;9652;49.014;12.052;2023-04-25T13:18:40;20.10;44.20
19039;DHT22;9652;49.014;12.052;2023-04-25T13:21:09;20.00;43.90
19039;DHT22;9652;49.014;12.052;2023-04-25T13:23:37;19.90;43.70
19039;DHT22;9652;49.014;12.052;2023-04-25T13:26:05;19.70;43.70
19039;DHT22;9652;49.014;12.052;2023-04-25T13:28:32;19.50;44.00
19039;DHT22;9652;49.014;12.052;2023-04-25T13:30:59;19.40;44.10
19039;DHT22;9652;49.014;12.052;2023-04-25T13:33:26;19.30;44.20
19039;DHT22;9652;49.014;12.052;2023-04-25T13:35:54;19.20;44.40
19039;DHT22;9652;49.014;12.052;2023-04-25T13:38:23;19.10;44.70
19039;DHT22;9652;49.014;12.052;2023-04-25T13:40:51;19.10;45.10
19039;DHT22;9652;49.014;12.052;2023-04-25T13:43:20;19.00;45.20
19039;DHT22;9652;49.014;12.052;2023-04-25T13:45:48;19.10;45.10
19039;DHT22;9652;49.014;12.052;2023-04-25T13:48:18;19.00;44.90
19039;DHT22;9652;49.014;12.052;2023-04-25T13:50:45;19.00;44.80
19039;DHT22;9652;49.014;12.052;2023-04-25T13:53:12;18.90;44.80
19039;DHT22;9652;49.014;12.052;2023-04-25T13:55:39;18.80;44.80
19039;DHT22;9652;49.014;12.052;2023-04-25T13:58:06;18.70;44.80
19039;DHT22;9652;49.014;12.052;2023-04-25T14:00:37;18.60;45.00
19039;DHT22;9652;49.014;12.052;2023-04-25T14:03:06;18.50;45.00
19039;DHT22;9652;49.014;12.052;2023-04-25T14:05:34;18.40;45.10
19039;DHT22;9652;49.014;12.052;2023-04-25T14:08:07;18.40;45.20
19039;DHT22;9652;49.014;12.052;2023-04-25T14:10:35;18.30;45.50
19039;DHT22;9652;49.014;12.052;2023-04-25T14:13:03;18.30;45.30
19039;DHT22;9652;49.014;12.052;2023-04-25T14:15:31;18.40;45.00
19039;DHT22;9652;49.014;12.052;2023-04-25T14:18:00;18.40;45.10
19039;DHT22;9652;49.014;12.052;2023-04-25T14:20:28;18.40;44.90
19039;DHT22;9652;49.014;12.052;2023-04-25T14:22:56;18.50;44.60
19039;DHT22;9652;49.014;12.052;2023-04-25T14:25:23;18.40;44.70
19039;DHT22;9652;49.014;12.052;2023-04-25T14:27:51;18.50;45.50
19039;DHT22;9652;49.014;12.052;2023-04-25T14:30:19;18.60;45.90
19039;DHT22;9652;49.014;12.052;2023-04-25T14:32:47;18.80;46.50
19039;DHT22;9652;49.014;12.052;2023-04-25T14:35:17;19.10;46.10
19039;DHT22;9652;49.014;12.052;2023-04-25T14:37:44;19.50;46.10
19039;DHT22;9652;49.014;12.052;2023-04-25T14:40:11;19.80;44.60
19039;DHT22;9652;49.014;12.052;2023-04-25T14:42:40;20.10;44.00
19039;DHT22;9652;49.014;12.052;2023-04-25T14:45:08;20.20;43.90
19039;DHT22;9652;49.014;12.052;2023-04-25T14:47:36;20.30;43.30
19039;DHT22;9652;49.014;12.052;2023-04-25T14:50:04;20.30;42.50
19039;DHT22;9652;49.014;12.052;2023-04-25T14:52:33;20.20;41.90
19039;DHT22;9652;49.014;12.052;2023-04-25T14:55:01;20.00;41.80
19039;DHT22;9652;49.014;12.052;2023-04-25T14:57:30;19.90;41.80
19039;DHT22;9652;49.014;12.052;2023-04-25T14:59:58;19.80;41.80
19039;DHT22;9652;49.014;12.052;2023-04-25T15:02:25;19.60;41.40
19039;DHT22;9652;49.014;12.052;2023-04-25T15:04:53;19.50;41.60
19039;DHT22;9652;49.014;12.052;2023-04-25T15:07:21;19.30;41.10
19039;DHT22;9652;49.014;12.052;2023-04-25T15:09:49;19.10;41.10
19039;DHT22;9652;49.014;12.052;2023-04-25T15:12:18;18.90;41.40
19039;DHT22;9652;49.014;12.052;2023-04-25T15:14:46;18.80;41.30
19039;DHT22;9652;49.014;12.052;2023-04-25T15:17:13;18.70;41.40
19039;DHT22;9652;49.014;12.052;2023-04-25T15:19:40;18.50;41.90
19039;DHT22;9652;49.014;12.052;2023-04-25T15:22:07;18.50;42.40
19039;DHT22;9652;49.014;12.052;2023-04-25T15:24:34;18.50;43.10
19039;DHT22;9652;49.014;12.052;2023-04-25T15:27:03;18.60;44.00
19039;DHT22;9652;49.014;12.052;2023-04-25T15:29:31;18.80;43.70
19039;DHT22;9652;49.014;12.052;2023-04-25T15:31:58;18.90;42.10
19039;DHT22;9652;49.014;12.052;2023-04-25T15:34:25;19.10;41.90
19039;DHT22;9652;49.014;12.052;2023-04-25T15:36:52;19.10;41.40
19039;DHT22;9652;49.014;12.052;2023-04-25T15:39:20;19.20;41.20
19039;DHT22;9652;49.014;12.052;2023-04-25T15:41:47;19.10;41.20
19039;DHT22;9652;49.014;12.052;2023-04-25T15:44:15;19.10;41.10
19039;DHT22;9652;49.014;12.052;2023-04-25T15:46:42;19.00;41.10
19039;DHT22;9652;49.014;12.052;2023-04-25T15:49:11;19.00;41.40
19039;DHT22;9652;49.014;12.052;2023-04-25T15:51:38;18.90;41.50
19039;DHT22;9652;49.014;12.052;2023-04-25T15:54:05;18.90;41.40
19039;DHT22;9652;49.014;12.052;2023-04-25T15:56:32;18.80;41.40